Macuco, Brazil
Current Conditions -  °F | °C
As of 1:00 PM on Monday 24 Nov 2014 (Local Time) from SBSR Reporting Station
Scattered Clouds Scattered Clouds  
Wind Chill: 84°   Ceiling: Unl
Heat Index: 86°   Visibility: 6mi
Dew Point: 66°   Wind: 9mph
Humidity: 55%   Direction: 350°N
Pressure: 30"   Gusts: NA
Location:  21.72°S, 50.13°W
Report Text: SBSR 241500Z 35008KT 9999 SCT030 SCT070 29/19 Q1016
Loading
Personal Weather Stations






























Interactive Weather Map New forecast layout! Learn more

10-Day Weather Forecast

Advertisements
Track Severe Weather on mobile